sensor_id;sensor_type;location;lat;lon;timestamp;P1;durP1;ratioP1;P2;durP2;ratioP2
74789;SDS011;63318;52.406;13.416;2022-10-30T00:00:42;16.60;;;10.10;;
74789;SDS011;63318;52.406;13.416;2022-10-30T00:03:12;14.60;;;9.50;;
74789;SDS011;63318;52.406;13.416;2022-10-30T00:05:42;17.50;;;9.30;;
74789;SDS011;63318;52.406;13.416;2022-10-30T00:08:12;15.40;;;8.90;;
74789;SDS011;63318;52.406;13.416;2022-10-30T00:10:43;13.20;;;8.30;;
74789;SDS011;63318;52.406;13.416;2022-10-30T00:13:11;17.70;;;9.70;;
74789;SDS011;63318;52.406;13.416;2022-10-30T00:15:40;17.10;;;10.10;;
74789;SDS011;63318;52.406;13.416;2022-10-30T00:18:14;16.10;;;10.10;;
74789;SDS011;63318;52.406;13.416;2022-10-30T00:20:42;13.60;;;9.90;;
74789;SDS011;63318;52.406;13.416;2022-10-30T00:23:11;15.20;;;9.00;;
74789;SDS011;63318;52.406;13.416;2022-10-30T00:25:39;15.10;;;10.90;;
74789;SDS011;63318;52.406;13.416;2022-10-30T00:28:07;13.10;;;8.60;;
74789;SDS011;63318;52.406;13.416;2022-10-30T00:30:35;16.00;;;10.00;;
74789;SDS011;63318;52.406;13.416;2022-10-30T00:33:04;16.60;;;9.50;;
74789;SDS011;63318;52.406;13.416;2022-10-30T00:35:33;15.20;;;10.40;;
74789;SDS011;63318;52.406;13.416;2022-10-30T00:38:01;16.30;;;10.00;;
74789;SDS011;63318;52.406;13.416;2022-10-30T00:40:30;16.00;;;9.90;;
74789;SDS011;63318;52.406;13.416;2022-10-30T00:42:58;15.70;;;10.10;;
74789;SDS011;63318;52.406;13.416;2022-10-30T00:45:26;18.30;;;10.60;;
74789;SDS011;63318;52.406;13.416;2022-10-30T00:47:55;14.10;;;10.10;;
74789;SDS011;63318;52.406;13.416;2022-10-30T00:50:27;16.70;;;10.60;;
74789;SDS011;63318;52.406;13.416;2022-10-30T00:52:58;14.50;;;10.20;;
74789;SDS011;63318;52.406;13.416;2022-10-30T00:55:29;17.50;;;10.30;;
74789;SDS011;63318;52.406;13.416;2022-10-30T00:58:02;15.90;;;9.30;;
74789;SDS011;63318;52.406;13.416;2022-10-30T01:00:34;16.60;;;9.30;;
74789;SDS011;63318;52.406;13.416;2022-10-30T01:03:04;15.60;;;8.60;;
74789;SDS011;63318;52.406;13.416;2022-10-30T01:05:33;10.90;;;7.30;;
74789;SDS011;63318;52.406;13.416;2022-10-30T01:08:03;13.10;;;7.80;;
74789;SDS011;63318;52.406;13.416;2022-10-30T01:10:32;13.30;;;8.60;;
74789;SDS011;63318;52.406;13.416;2022-10-30T01:13:00;13.80;;;8.90;;
74789;SDS011;63318;52.406;13.416;2022-10-30T01:15:29;15.80;;;10.20;;
74789;SDS011;63318;52.406;13.416;2022-10-30T01:18:08;21.20;;;10.80;;
74789;SDS011;63318;52.406;13.416;2022-10-30T01:21:00;15.10;;;9.30;;
74789;SDS011;63318;52.406;13.416;2022-10-30T01:23:38;13.30;;;9.00;;
74789;SDS011;63318;52.406;13.416;2022-10-30T01:26:16;16.90;;;9.90;;
74789;SDS011;63318;52.406;13.416;2022-10-30T01:28:57;16.50;;;10.50;;
74789;SDS011;63318;52.406;13.416;2022-10-30T01:31:39;18.90;;;11.30;;
74789;SDS011;63318;52.406;13.416;2022-10-30T01:34:19;16.50;;;9.60;;
74789;SDS011;63318;52.406;13.416;2022-10-30T01:36:56;18.90;;;10.00;;
74789;SDS011;63318;52.406;13.416;2022-10-30T01:39:30;17.00;;;10.20;;
74789;SDS011;63318;52.406;13.416;2022-10-30T01:42:07;11.20;;;8.30;;
74789;SDS011;63318;52.406;13.416;2022-10-30T01:44:36;21.90;;;11.50;;
74789;SDS011;63318;52.406;13.416;2022-10-30T01:47:11;18.50;;;10.90;;
74789;SDS011;63318;52.406;13.416;2022-10-30T01:49:55;16.00;;;9.30;;
74789;SDS011;63318;52.406;13.416;2022-10-30T01:52:35;16.40;;;9.40;;
74789;SDS011;63318;52.406;13.416;2022-10-30T01:55:15;19.20;;;10.30;;
74789;SDS011;63318;52.406;13.416;2022-10-30T01:57:54;15.30;;;9.60;;
74789;SDS011;63318;52.406;13.416;2022-10-30T02:00:27;19.80;;;10.20;;
74789;SDS011;63318;52.406;13.416;2022-10-30T02:02:58;17.90;;;10.00;;
74789;SDS011;63318;52.406;13.416;2022-10-30T02:05:29;16.00;;;10.70;;
74789;SDS011;63318;52.406;13.416;2022-10-30T02:08:03;15.10;;;11.20;;
74789;SDS011;63318;52.406;13.416;2022-10-30T02:10:32;18.90;;;10.40;;
74789;SDS011;63318;52.406;13.416;2022-10-30T02:13:02;21.10;;;10.60;;
74789;SDS011;63318;52.406;13.416;2022-10-30T02:15:30;16.60;;;10.40;;
74789;SDS011;63318;52.406;13.416;2022-10-30T02:17:59;17.40;;;9.60;;
74789;SDS011;63318;52.406;13.416;2022-10-30T02:20:28;17.60;;;11.60;;
74789;SDS011;63318;52.406;13.416;2022-10-30T02:22:56;17.70;;;11.60;;
74789;SDS011;63318;52.406;13.416;2022-10-30T02:25:24;16.40;;;10.30;;
74789;SDS011;63318;52.406;13.416;2022-10-30T02:27:53;16.10;;;10.10;;
74789;SDS011;63318;52.406;13.416;2022-10-30T02:30:21;17.70;;;10.10;;
74789;SDS011;63318;52.406;13.416;2022-10-30T02:32:49;17.50;;;9.90;;
74789;SDS011;63318;52.406;13.416;2022-10-30T02:35:17;16.30;;;9.50;;
74789;SDS011;63318;52.406;13.416;2022-10-30T02:37:47;16.70;;;10.00;;
74789;SDS011;63318;52.406;13.416;2022-10-30T02:40:15;14.90;;;10.30;;
74789;SDS011;63318;52.406;13.416;2022-10-30T02:42:44;15.40;;;10.40;;
74789;SDS011;63318;52.406;13.416;2022-10-30T02:45:16;13.70;;;10.00;;
74789;SDS011;63318;52.406;13.416;2022-10-30T02:47:44;15.80;;;9.60;;
74789;SDS011;63318;52.406;13.416;2022-10-30T02:50:13;18.30;;;9.90;;
74789;SDS011;63318;52.406;13.416;2022-10-30T02:52:41;14.90;;;10.30;;
74789;SDS011;63318;52.406;13.416;2022-10-30T02:55:09;14.80;;;9.20;;
74789;SDS011;63318;52.406;13.416;2022-10-30T02:57:37;15.60;;;9.70;;
74789;SDS011;63318;52.406;13.416;2022-10-30T03:00:07;17.90;;;11.00;;
74789;SDS011;63318;52.406;13.416;2022-10-30T03:02:36;14.00;;;9.10;;
74789;SDS011;63318;52.406;13.416;2022-10-30T03:05:05;13.70;;;10.20;;
74789;SDS011;63318;52.406;13.416;2022-10-30T03:07:33;13.70;;;9.00;;
74789;SDS011;63318;52.406;13.416;2022-10-30T03:10:02;15.10;;;8.90;;
74789;SDS011;63318;52.406;13.416;2022-10-30T03:12:31;14.40;;;8.90;;
74789;SDS011;63318;52.406;13.416;2022-10-30T03:14:59;13.50;;;8.60;;
74789;SDS011;63318;52.406;13.416;2022-10-30T03:17:27;13.70;;;9.20;;
74789;SDS011;63318;52.406;13.416;2022-10-30T03:19:56;13.00;;;9.10;;
74789;SDS011;63318;52.406;13.416;2022-10-30T03:22:24;13.20;;;8.70;;
74789;SDS011;63318;52.406;13.416;2022-10-30T03:24:52;17.10;;;9.70;;
74789;SDS011;63318;52.406;13.416;2022-10-30T03:27:20;16.60;;;9.20;;
74789;SDS011;63318;52.406;13.416;2022-10-30T03:29:49;15.80;;;9.10;;
74789;SDS011;63318;52.406;13.416;2022-10-30T03:32:17;15.50;;;9.60;;
74789;SDS011;63318;52.406;13.416;2022-10-30T03:34:45;17.60;;;9.60;;
74789;SDS011;63318;52.406;13.416;2022-10-30T03:37:13;16.50;;;10.00;;
74789;SDS011;63318;52.406;13.416;2022-10-30T03:39:41;15.70;;;9.00;;
74789;SDS011;63318;52.406;13.416;2022-10-30T03:42:10;17.40;;;9.80;;
74789;SDS011;63318;52.406;13.416;2022-10-30T03:44:38;18.10;;;11.00;;
74789;SDS011;63318;52.406;13.416;2022-10-30T03:47:06;16.90;;;10.30;;
74789;SDS011;63318;52.406;13.416;2022-10-30T03:49:34;15.60;;;9.60;;
74789;SDS011;63318;52.406;13.416;2022-10-30T03:52:03;16.20;;;10.20;;
74789;SDS011;63318;52.406;13.416;2022-10-30T03:54:31;18.30;;;10.20;;
74789;SDS011;63318;52.406;13.416;2022-10-30T03:56:59;13.70;;;10.70;;
74789;SDS011;63318;52.406;13.416;2022-10-30T03:59:27;16.30;;;10.50;;
74789;SDS011;63318;52.406;13.416;2022-10-30T04:01:56;17.00;;;10.00;;
74789;SDS011;63318;52.406;13.416;2022-10-30T04:04:24;19.90;;;9.50;;
74789;SDS011;63318;52.406;13.416;2022-10-30T04:06:52;18.60;;;8.90;;
74789;SDS011;63318;52.406;13.416;2022-10-30T04:09:21;18.90;;;9.80;;
74789;SDS011;63318;52.406;13.416;2022-10-30T04:11:49;16.80;;;9.60;;
74789;SDS011;63318;52.406;13.416;2022-10-30T04:14:17;14.00;;;8.90;;
74789;SDS011;63318;52.406;13.416;2022-10-30T04:16:45;13.60;;;8.40;;
74789;SDS011;63318;52.406;13.416;2022-10-30T04:19:13;16.90;;;9.00;;
74789;SDS011;63318;52.406;13.416;2022-10-30T04:21:42;18.70;;;9.60;;
74789;SDS011;63318;52.406;13.416;2022-10-30T04:24:10;18.50;;;10.30;;
74789;SDS011;63318;52.406;13.416;2022-10-30T04:26:38;16.80;;;9.70;;
74789;SDS011;63318;52.406;13.416;2022-10-30T04:29:06;19.40;;;10.90;;
74789;SDS011;63318;52.406;13.416;2022-10-30T04:31:35;16.80;;;10.40;;
74789;SDS011;63318;52.406;13.416;2022-10-30T04:34:03;15.70;;;8.80;;
74789;SDS011;63318;52.406;13.416;2022-10-30T04:36:31;16.60;;;9.60;;
74789;SDS011;63318;52.406;13.416;2022-10-30T04:38:59;15.80;;;8.90;;
74789;SDS011;63318;52.406;13.416;2022-10-30T04:41:28;15.90;;;9.60;;
74789;SDS011;63318;52.406;13.416;2022-10-30T04:43:56;17.40;;;9.60;;
74789;SDS011;63318;52.406;13.416;2022-10-30T04:46:24;16.80;;;9.20;;
74789;SDS011;63318;52.406;13.416;2022-10-30T04:48:52;13.90;;;8.10;;
74789;SDS011;63318;52.406;13.416;2022-10-30T04:51:21;14.40;;;8.80;;
74789;SDS011;63318;52.406;13.416;2022-10-30T04:53:49;15.20;;;8.10;;
74789;SDS011;63318;52.406;13.416;2022-10-30T04:56:17;13.60;;;8.20;;
74789;SDS011;63318;52.406;13.416;2022-10-30T04:58:45;14.60;;;9.20;;
74789;SDS011;63318;52.406;13.416;2022-10-30T05:01:14;15.90;;;8.80;;
74789;SDS011;63318;52.406;13.416;2022-10-30T05:03:42;15.00;;;8.90;;
74789;SDS011;63318;52.406;13.416;2022-10-30T05:06:14;16.90;;;9.10;;
74789;SDS011;63318;52.406;13.416;2022-10-30T05:08:47;17.20;;;9.20;;
74789;SDS011;63318;52.406;13.416;2022-10-30T05:11:15;15.30;;;8.90;;
74789;SDS011;63318;52.406;13.416;2022-10-30T05:13:44;17.10;;;9.40;;
74789;SDS011;63318;52.406;13.416;2022-10-30T05:16:12;15.30;;;9.40;;
74789;SDS011;63318;52.406;13.416;2022-10-30T05:18:40;16.20;;;8.90;;
74789;SDS011;63318;52.406;13.416;2022-10-30T05:21:09;19.80;;;9.50;;
74789;SDS011;63318;52.406;13.416;2022-10-30T05:23:37;16.60;;;9.10;;
74789;SDS011;63318;52.406;13.416;2022-10-30T05:26:05;16.70;;;9.50;;
74789;SDS011;63318;52.406;13.416;2022-10-30T05:28:33;15.00;;;8.60;;
74789;SDS011;63318;52.406;13.416;2022-10-30T05:31:02;15.60;;;8.80;;
74789;SDS011;63318;52.406;13.416;2022-10-30T05:33:30;14.20;;;9.30;;
74789;SDS011;63318;52.406;13.416;2022-10-30T05:35:58;13.40;;;8.90;;
74789;SDS011;63318;52.406;13.416;2022-10-30T05:38:27;14.70;;;9.30;;
74789;SDS011;63318;52.406;13.416;2022-10-30T05:40:55;15.50;;;10.00;;
74789;SDS011;63318;52.406;13.416;2022-10-30T05:43:23;15.10;;;9.80;;
74789;SDS011;63318;52.406;13.416;2022-10-30T05:45:52;19.50;;;10.30;;
74789;SDS011;63318;52.406;13.416;2022-10-30T05:48:20;17.00;;;9.90;;
74789;SDS011;63318;52.406;13.416;2022-10-30T05:50:48;19.90;;;10.10;;
74789;SDS011;63318;52.406;13.416;2022-10-30T05:53:16;17.30;;;9.60;;
74789;SDS011;63318;52.406;13.416;2022-10-30T05:55:45;15.80;;;9.30;;
74789;SDS011;63318;52.406;13.416;2022-10-30T05:58:14;23.30;;;9.90;;
74789;SDS011;63318;52.406;13.416;2022-10-30T06:00:42;20.00;;;10.40;;
74789;SDS011;63318;52.406;13.416;2022-10-30T06:03:10;16.80;;;10.40;;
74789;SDS011;63318;52.406;13.416;2022-10-30T06:05:39;16.30;;;9.50;;
74789;SDS011;63318;52.406;13.416;2022-10-30T06:08:09;15.60;;;9.20;;
74789;SDS011;63318;52.406;13.416;2022-10-30T06:10:38;17.20;;;8.90;;
74789;SDS011;63318;52.406;13.416;2022-10-30T06:13:06;17.10;;;9.30;;
74789;SDS011;63318;52.406;13.416;2022-10-30T06:15:35;17.90;;;9.60;;
74789;SDS011;63318;52.406;13.416;2022-10-30T06:18:04;13.80;;;9.20;;
74789;SDS011;63318;52.406;13.416;2022-10-30T06:20:32;14.80;;;8.50;;
74789;SDS011;63318;52.406;13.416;2022-10-30T06:23:01;14.60;;;8.90;;
74789;SDS011;63318;52.406;13.416;2022-10-30T06:25:32;17.50;;;9.90;;
74789;SDS011;63318;52.406;13.416;2022-10-30T06:28:02;16.40;;;9.30;;
74789;SDS011;63318;52.406;13.416;2022-10-30T06:30:30;16.50;;;10.30;;
74789;SDS011;63318;52.406;13.416;2022-10-30T06:32:59;16.10;;;9.60;;
74789;SDS011;63318;52.406;13.416;2022-10-30T06:35:29;14.20;;;8.70;;
74789;SDS011;63318;52.406;13.416;2022-10-30T06:38:02;16.80;;;10.10;;
74789;SDS011;63318;52.406;13.416;2022-10-30T06:40:30;15.70;;;9.20;;
74789;SDS011;63318;52.406;13.416;2022-10-30T06:42:59;16.50;;;8.70;;
74789;SDS011;63318;52.406;13.416;2022-10-30T06:45:27;16.50;;;8.90;;
74789;SDS011;63318;52.406;13.416;2022-10-30T06:47:55;17.30;;;8.80;;
74789;SDS011;63318;52.406;13.416;2022-10-30T06:50:24;14.00;;;8.80;;
74789;SDS011;63318;52.406;13.416;2022-10-30T06:52:53;13.80;;;9.30;;
74789;SDS011;63318;52.406;13.416;2022-10-30T06:55:21;14.60;;;8.00;;
74789;SDS011;63318;52.406;13.416;2022-10-30T06:57:53;17.30;;;9.60;;
74789;SDS011;63318;52.406;13.416;2022-10-30T07:00:22;17.10;;;8.70;;
74789;SDS011;63318;52.406;13.416;2022-10-30T07:02:57;16.10;;;9.30;;
74789;SDS011;63318;52.406;13.416;2022-10-30T07:05:26;17.70;;;10.40;;
74789;SDS011;63318;52.406;13.416;2022-10-30T07:07:56;16.80;;;9.50;;
74789;SDS011;63318;52.406;13.416;2022-10-30T07:10:24;15.10;;;8.70;;
74789;SDS011;63318;52.406;13.416;2022-10-30T07:12:55;16.50;;;9.60;;
74789;SDS011;63318;52.406;13.416;2022-10-30T07:15:24;14.60;;;8.90;;
74789;SDS011;63318;52.406;13.416;2022-10-30T07:17:53;16.60;;;9.50;;
74789;SDS011;63318;52.406;13.416;2022-10-30T07:20:24;15.30;;;8.90;;
74789;SDS011;63318;52.406;13.416;2022-10-30T07:22:53;18.00;;;8.60;;
74789;SDS011;63318;52.406;13.416;2022-10-30T07:25:22;14.90;;;8.60;;
74789;SDS011;63318;52.406;13.416;2022-10-30T07:27:51;19.50;;;9.20;;
74789;SDS011;63318;52.406;13.416;2022-10-30T07:30:21;12.60;;;8.10;;
74789;SDS011;63318;52.406;13.416;2022-10-30T07:32:58;13.20;;;8.50;;
74789;SDS011;63318;52.406;13.416;2022-10-30T07:35:28;16.20;;;8.00;;
74789;SDS011;63318;52.406;13.416;2022-10-30T07:38:01;18.10;;;8.60;;
74789;SDS011;63318;52.406;13.416;2022-10-30T07:40:30;18.00;;;7.80;;
74789;SDS011;63318;52.406;13.416;2022-10-30T07:42:59;14.50;;;8.90;;
74789;SDS011;63318;52.406;13.416;2022-10-30T07:45:28;14.40;;;7.90;;
74789;SDS011;63318;52.406;13.416;2022-10-30T07:47:57;19.20;;;8.80;;
74789;SDS011;63318;52.406;13.416;2022-10-30T07:50:25;15.60;;;9.20;;
74789;SDS011;63318;52.406;13.416;2022-10-30T07:52:54;14.70;;;8.10;;
74789;SDS011;63318;52.406;13.416;2022-10-30T07:55:22;15.70;;;9.40;;
74789;SDS011;63318;52.406;13.416;2022-10-30T07:57:50;15.00;;;8.40;;
74789;SDS011;63318;52.406;13.416;2022-10-30T08:00:19;15.40;;;10.40;;
74789;SDS011;63318;52.406;13.416;2022-10-30T08:02:49;18.40;;;10.50;;
74789;SDS011;63318;52.406;13.416;2022-10-30T08:05:21;16.90;;;8.20;;
74789;SDS011;63318;52.406;13.416;2022-10-30T08:07:50;15.40;;;8.00;;
74789;SDS011;63318;52.406;13.416;2022-10-30T08:10:18;20.80;;;8.40;;
74789;SDS011;63318;52.406;13.416;2022-10-30T08:12:46;16.10;;;8.00;;
74789;SDS011;63318;52.406;13.416;2022-10-30T08:15:15;16.80;;;7.90;;
74789;SDS011;63318;52.406;13.416;2022-10-30T08:17:43;15.70;;;7.80;;
74789;SDS011;63318;52.406;13.416;2022-10-30T08:20:13;18.20;;;8.50;;
74789;SDS011;63318;52.406;13.416;2022-10-30T08:22:45;15.10;;;8.10;;
74789;SDS011;63318;52.406;13.416;2022-10-30T08:25:15;12.90;;;7.70;;
74789;SDS011;63318;52.406;13.416;2022-10-30T08:27:52;14.40;;;7.70;;
74789;SDS011;63318;52.406;13.416;2022-10-30T08:30:21;16.10;;;7.60;;
74789;SDS011;63318;52.406;13.416;2022-10-30T08:32:52;13.10;;;7.90;;
74789;SDS011;63318;52.406;13.416;2022-10-30T08:37:51;15.50;;;7.00;;
74789;SDS011;63318;52.406;13.416;2022-10-30T08:40:21;10.50;;;7.10;;
74789;SDS011;63318;52.406;13.416;2022-10-30T08:42:51;15.10;;;7.30;;
74789;SDS011;63318;52.406;13.416;2022-10-30T08:45:21;14.50;;;7.10;;
74789;SDS011;63318;52.406;13.416;2022-10-30T08:47:56;15.40;;;7.00;;
74789;SDS011;63318;52.406;13.416;2022-10-30T08:50:25;12.70;;;6.70;;
74789;SDS011;63318;52.406;13.416;2022-10-30T08:52:53;12.90;;;6.90;;
74789;SDS011;63318;52.406;13.416;2022-10-30T08:55:25;17.70;;;6.90;;
74789;SDS011;63318;52.406;13.416;2022-10-30T08:57:54;14.70;;;7.10;;
74789;SDS011;63318;52.406;13.416;2022-10-30T09:00:22;14.00;;;6.10;;
74789;SDS011;63318;52.406;13.416;2022-10-30T09:02:51;15.40;;;6.50;;
74789;SDS011;63318;52.406;13.416;2022-10-30T09:05:19;14.30;;;7.40;;
74789;SDS011;63318;52.406;13.416;2022-10-30T09:07:48;13.30;;;6.70;;
74789;SDS011;63318;52.406;13.416;2022-10-30T09:10:20;19.10;;;6.50;;
74789;SDS011;63318;52.406;13.416;2022-10-30T09:12:51;13.70;;;8.00;;
74789;SDS011;63318;52.406;13.416;2022-10-30T09:17:47;13.10;;;6.30;;
74789;SDS011;63318;52.406;13.416;2022-10-30T09:20:22;15.50;;;7.10;;
74789;SDS011;63318;52.406;13.416;2022-10-30T09:22:50;10.60;;;6.50;;
74789;SDS011;63318;52.406;13.416;2022-10-30T09:25:19;13.40;;;6.50;;
74789;SDS011;63318;52.406;13.416;2022-10-30T09:27:47;14.60;;;6.40;;
74789;SDS011;63318;52.406;13.416;2022-10-30T09:30:16;15.10;;;6.50;;
74789;SDS011;63318;52.406;13.416;2022-10-30T09:32:45;16.40;;;6.20;;
74789;SDS011;63318;52.406;13.416;2022-10-30T09:35:19;13.40;;;5.60;;
74789;SDS011;63318;52.406;13.416;2022-10-30T09:37:47;11.70;;;5.10;;
74789;SDS011;63318;52.406;13.416;2022-10-30T09:40:18;12.40;;;5.60;;
74789;SDS011;63318;52.406;13.416;2022-10-30T09:42:53;13.50;;;5.70;;
74789;SDS011;63318;52.406;13.416;2022-10-30T09:48:42;10.60;;;6.00;;
74789;SDS011;63318;52.406;13.416;2022-10-30T09:51:24;16.20;;;5.80;;
74789;SDS011;63318;52.406;13.416;2022-10-30T09:54:04;11.30;;;5.10;;
74789;SDS011;63318;52.406;13.416;2022-10-30T09:56:41;12.50;;;5.10;;
74789;SDS011;63318;52.406;13.416;2022-10-30T09:59:16;11.10;;;4.40;;
74789;SDS011;63318;52.406;13.416;2022-10-30T10:01:55;9.90;;;4.70;;
74789;SDS011;63318;52.406;13.416;2022-10-30T10:04:32;13.10;;;5.30;;
74789;SDS011;63318;52.406;13.416;2022-10-30T10:07:06;11.30;;;5.40;;
74789;SDS011;63318;52.406;13.416;2022-10-30T10:09:41;18.50;;;5.90;;
74789;SDS011;63318;52.406;13.416;2022-10-30T10:12:13;14.30;;;5.00;;
74789;SDS011;63318;52.406;13.416;2022-10-30T10:14:49;13.90;;;4.90;;
74789;SDS011;63318;52.406;13.416;2022-10-30T10:17:23;9.70;;;5.00;;
74789;SDS011;63318;52.406;13.416;2022-10-30T10:19:56;12.50;;;5.00;;
74789;SDS011;63318;52.406;13.416;2022-10-30T10:22:28;11.00;;;4.60;;
74789;SDS011;63318;52.406;13.416;2022-10-30T10:25:02;12.90;;;5.00;;
74789;SDS011;63318;52.406;13.416;2022-10-30T10:27:40;13.80;;;4.50;;
74789;SDS011;63318;52.406;13.416;2022-10-30T10:30:19;13.50;;;4.50;;
74789;SDS011;63318;52.406;13.416;2022-10-30T10:33:08;13.80;;;5.60;;
74789;SDS011;63318;52.406;13.416;2022-10-30T10:35:54;10.60;;;5.10;;
74789;SDS011;63318;52.406;13.416;2022-10-30T10:38:37;8.40;;;4.50;;
74789;SDS011;63318;52.406;13.416;2022-10-30T10:41:19;12.30;;;4.50;;
74789;SDS011;63318;52.406;13.416;2022-10-30T10:44:01;11.60;;;4.80;;
74789;SDS011;63318;52.406;13.416;2022-10-30T10:46:51;10.20;;;4.80;;
74789;SDS011;63318;52.406;13.416;2022-10-30T10:49:31;12.50;;;4.90;;
74789;SDS011;63318;52.406;13.416;2022-10-30T10:52:07;13.20;;;4.20;;
74789;SDS011;63318;52.406;13.416;2022-10-30T10:54:40;11.00;;;4.50;;
74789;SDS011;63318;52.406;13.416;2022-10-30T10:57:13;10.80;;;4.60;;
74789;SDS011;63318;52.406;13.416;2022-10-30T10:59:50;19.20;;;4.40;;
74789;SDS011;63318;52.406;13.416;2022-10-30T11:02:27;11.20;;;4.60;;
74789;SDS011;63318;52.406;13.416;2022-10-30T11:05:04;12.50;;;4.80;;
74789;SDS011;63318;52.406;13.416;2022-10-30T11:07:42;14.80;;;4.30;;
74789;SDS011;63318;52.406;13.416;2022-10-30T11:10:14;10.20;;;4.70;;
74789;SDS011;63318;52.406;13.416;2022-10-30T11:12:44;12.30;;;4.40;;
74789;SDS011;63318;52.406;13.416;2022-10-30T11:15:20;14.40;;;4.40;;
74789;SDS011;63318;52.406;13.416;2022-10-30T11:17:59;9.70;;;3.60;;
74789;SDS011;63318;52.406;13.416;2022-10-30T11:20:34;8.20;;;4.40;;
74789;SDS011;63318;52.406;13.416;2022-10-30T11:29:12;9.90;;;3.90;;
74789;SDS011;63318;52.406;13.416;2022-10-30T11:31:45;14.20;;;4.70;;
74789;SDS011;63318;52.406;13.416;2022-10-30T11:34:27;10.70;;;4.30;;
74789;SDS011;63318;52.406;13.416;2022-10-30T11:37:27;13.10;;;4.30;;
74789;SDS011;63318;52.406;13.416;2022-10-30T11:40:02;10.90;;;4.20;;
74789;SDS011;63318;52.406;13.416;2022-10-30T11:42:33;12.90;;;4.70;;
74789;SDS011;63318;52.406;13.416;2022-10-30T11:45:03;12.40;;;3.90;;
74789;SDS011;63318;52.406;13.416;2022-10-30T11:47:40;10.90;;;3.90;;
74789;SDS011;63318;52.406;13.416;2022-10-30T11:50:14;9.30;;;3.80;;
74789;SDS011;63318;52.406;13.416;2022-10-30T11:52:45;12.20;;;4.00;;
74789;SDS011;63318;52.406;13.416;2022-10-30T11:55:18;15.80;;;4.00;;
74789;SDS011;63318;52.406;13.416;2022-10-30T11:57:54;11.00;;;3.90;;
74789;SDS011;63318;52.406;13.416;2022-10-30T12:00:23;9.80;;;3.40;;
74789;SDS011;63318;52.406;13.416;2022-10-30T12:02:54;9.90;;;3.80;;
74789;SDS011;63318;52.406;13.416;2022-10-30T12:05:29;12.40;;;3.50;;
74789;SDS011;63318;52.406;13.416;2022-10-30T12:08:17;11.70;;;3.80;;
74789;SDS011;63318;52.406;13.416;2022-10-30T12:10:53;8.40;;;3.20;;
74789;SDS011;63318;52.406;13.416;2022-10-30T12:13:27;12.70;;;3.30;;
74789;SDS011;63318;52.406;13.416;2022-10-30T12:16:04;11.30;;;4.20;;
74789;SDS011;63318;52.406;13.416;2022-10-30T12:18:41;9.00;;;3.40;;
74789;SDS011;63318;52.406;13.416;2022-10-30T12:21:17;8.80;;;3.60;;
74789;SDS011;63318;52.406;13.416;2022-10-30T12:23:50;13.20;;;3.50;;
74789;SDS011;63318;52.406;13.416;2022-10-30T12:26:21;13.60;;;4.20;;
74789;SDS011;63318;52.406;13.416;2022-10-30T12:28:50;10.40;;;3.20;;
74789;SDS011;63318;52.406;13.416;2022-10-30T12:31:24;10.60;;;3.70;;
74789;SDS011;63318;52.406;13.416;2022-10-30T12:34:01;14.70;;;4.20;;
74789;SDS011;63318;52.406;13.416;2022-10-30T12:36:39;13.90;;;4.30;;
74789;SDS011;63318;52.406;13.416;2022-10-30T12:39:14;9.80;;;3.50;;
74789;SDS011;63318;52.406;13.416;2022-10-30T12:41:53;8.70;;;3.50;;
74789;SDS011;63318;52.406;13.416;2022-10-30T12:44:27;12.00;;;3.70;;
74789;SDS011;63318;52.406;13.416;2022-10-30T12:47:02;10.90;;;3.60;;
74789;SDS011;63318;52.406;13.416;2022-10-30T12:49:38;12.10;;;3.80;;
74789;SDS011;63318;52.406;13.416;2022-10-30T12:52:09;12.10;;;3.50;;
74789;SDS011;63318;52.406;13.416;2022-10-30T12:54:44;10.60;;;3.50;;
74789;SDS011;63318;52.406;13.416;2022-10-30T12:57:17;10.90;;;3.40;;
74789;SDS011;63318;52.406;13.416;2022-10-30T12:59:53;8.50;;;3.00;;
74789;SDS011;63318;52.406;13.416;2022-10-30T13:02:39;8.90;;;3.10;;
74789;SDS011;63318;52.406;13.416;2022-10-30T13:05:20;10.30;;;3.40;;
74789;SDS011;63318;52.406;13.416;2022-10-30T13:10:26;8.40;;;2.80;;
74789;SDS011;63318;52.406;13.416;2022-10-30T13:13:00;12.30;;;4.80;;
74789;SDS011;63318;52.406;13.416;2022-10-30T13:15:37;11.10;;;3.40;;
74789;SDS011;63318;52.406;13.416;2022-10-30T13:18:13;8.70;;;3.80;;
74789;SDS011;63318;52.406;13.416;2022-10-30T13:20:48;9.80;;;3.60;;
74789;SDS011;63318;52.406;13.416;2022-10-30T13:23:41;10.90;;;3.80;;
74789;SDS011;63318;52.406;13.416;2022-10-30T13:26:18;9.70;;;3.50;;
74789;SDS011;63318;52.406;13.416;2022-10-30T13:28:57;12.50;;;3.50;;
74789;SDS011;63318;52.406;13.416;2022-10-30T13:31:34;14.50;;;3.90;;
74789;SDS011;63318;52.406;13.416;2022-10-30T13:34:15;14.40;;;4.20;;
74789;SDS011;63318;52.406;13.416;2022-10-30T13:36:57;12.20;;;4.00;;
74789;SDS011;63318;52.406;13.416;2022-10-30T13:39:32;13.50;;;4.10;;
74789;SDS011;63318;52.406;13.416;2022-10-30T13:42:11;11.20;;;3.60;;
74789;SDS011;63318;52.406;13.416;2022-10-30T13:44:51;9.20;;;3.40;;
74789;SDS011;63318;52.406;13.416;2022-10-30T13:47:29;9.40;;;3.70;;
74789;SDS011;63318;52.406;13.416;2022-10-30T13:50:10;13.00;;;4.00;;
74789;SDS011;63318;52.406;13.416;2022-10-30T13:52:52;11.40;;;3.60;;
74789;SDS011;63318;52.406;13.416;2022-10-30T13:55:24;12.70;;;3.90;;
74789;SDS011;63318;52.406;13.416;2022-10-30T13:57:56;10.10;;;3.60;;
74789;SDS011;63318;52.406;13.416;2022-10-30T14:00:33;9.00;;;4.20;;
74789;SDS011;63318;52.406;13.416;2022-10-30T14:03:28;14.50;;;4.00;;
74789;SDS011;63318;52.406;13.416;2022-10-30T14:06:09;10.70;;;3.40;;
74789;SDS011;63318;52.406;13.416;2022-10-30T14:08:49;14.70;;;3.40;;
74789;SDS011;63318;52.406;13.416;2022-10-30T14:11:26;9.60;;;3.50;;
74789;SDS011;63318;52.406;13.416;2022-10-30T14:13:55;17.10;;;4.40;;
74789;SDS011;63318;52.406;13.416;2022-10-30T14:16:37;8.80;;;3.80;;
74789;SDS011;63318;52.406;13.416;2022-10-30T14:19:08;14.80;;;4.70;;
74789;SDS011;63318;52.406;13.416;2022-10-30T14:21:44;14.00;;;4.70;;
74789;SDS011;63318;52.406;13.416;2022-10-30T14:24:19;12.90;;;3.60;;
74789;SDS011;63318;52.406;13.416;2022-10-30T14:26:51;9.50;;;3.80;;
74789;SDS011;63318;52.406;13.416;2022-10-30T14:35:29;10.90;;;3.40;;
74789;SDS011;63318;52.406;13.416;2022-10-30T14:38:21;10.50;;;3.30;;
74789;SDS011;63318;52.406;13.416;2022-10-30T14:44:05;10.20;;;3.50;;
74789;SDS011;63318;52.406;13.416;2022-10-30T14:46:47;8.60;;;3.50;;
74789;SDS011;63318;52.406;13.416;2022-10-30T14:52:23;9.50;;;3.60;;
74789;SDS011;63318;52.406;13.416;2022-10-30T14:55:13;13.10;;;3.30;;
74789;SDS011;63318;52.406;13.416;2022-10-30T14:58:07;13.70;;;4.20;;
74789;SDS011;63318;52.406;13.416;2022-10-30T15:00:46;10.60;;;3.60;;
74789;SDS011;63318;52.406;13.416;2022-10-30T15:03:18;12.90;;;3.20;;
74789;SDS011;63318;52.406;13.416;2022-10-30T15:06:01;12.10;;;3.70;;
74789;SDS011;63318;52.406;13.416;2022-10-30T15:08:41;10.80;;;4.30;;
74789;SDS011;63318;52.406;13.416;2022-10-30T15:11:33;11.10;;;3.90;;
74789;SDS011;63318;52.406;13.416;2022-10-30T15:14:11;10.00;;;4.10;;
74789;SDS011;63318;52.406;13.416;2022-10-30T15:16:46;13.70;;;4.60;;
74789;SDS011;63318;52.406;13.416;2022-10-30T15:19:17;13.60;;;4.50;;